Time;durP1;ratioP1;P1;durP2;ratioP2;P2;SDS_P1;SDS_P2;PMS_P1;PMS_P2;Temp;Humidity;BMP_temperature;BMP_pressure;BME280_temperature;BME280_humidity;BME280_pressure;Samples;Min_cycle;Max_cycle;Signal;HPM_P1;HPM_P2
2021/11/09 00:01:49;;;;;;;18.88;8.43;;;;;;;;;;5038483;28;20403;-85
2021/11/09 00:04:15;;;;;;;19.85;9.32;;;;;;;;;;5037024;28;20049;-81
2021/11/09 00:06:43;;;;;;;20.08;8.15;;;;;;;;;;5047657;28;20037;-81
2021/11/09 00:09:16;;;;;;;16.80;8.52;;;;;;;;;;5035786;28;20027;-85
2021/11/09 00:11:42;;;;;;;19.27;8.80;;;;;;;;;;5040554;28;20032;-82
2021/11/09 00:14:08;;;;;;;19.73;8.48;;;;;;;;;;5045313;28;20029;-83
2021/11/09 00:16:34;;;;;;;19.98;9.38;;;;;;;;;;5058556;28;20024;-81
2021/11/09 00:19:00;;;;;;;21.98;9.18;;;;;;;;;;5053801;28;20032;-84
2021/11/09 00:21:26;;;;;;;17.73;8.48;;;;;;;;;;5053335;28;20036;-85
2021/11/09 00:23:52;;;;;;;19.98;8.48;;;;;;;;;;5059545;28;20402;-81
2021/11/09 00:26:18;;;;;;;20.25;8.70;;;;;;;;;;5052832;28;20030;-85
2021/11/09 00:28:44;;;;;;;18.90;10.10;;;;;;;;;;5054387;28;20399;-84
2021/11/09 00:31:10;;;;;;;19.58;9.25;;;;;;;;;;5036123;28;20029;-82
2021/11/09 00:33:35;;;;;;;24.73;9.05;;;;;;;;;;5037598;28;20028;-84
2021/11/09 00:36:01;;;;;;;21.02;9.00;;;;;;;;;;5034934;28;20032;-82
2021/11/09 00:38:26;;;;;;;19.65;8.80;;;;;;;;;;5040377;28;20016;-83
2021/11/09 00:40:53;;;;;;;22.50;9.35;;;;;;;;;;5043758;28;20083;-85
2021/11/09 00:43:19;;;;;;;18.30;8.60;;;;;;;;;;5035143;28;20032;-83
2021/11/09 00:45:45;;;;;;;18.10;8.98;;;;;;;;;;5040428;28;20399;-85
2021/11/09 00:48:11;;;;;;;19.85;8.68;;;;;;;;;;5035060;28;20025;-82
2021/11/09 00:50:38;;;;;;;15.52;8.95;;;;;;;;;;5051649;28;20029;-82
2021/11/09 00:53:05;;;;;;;18.05;8.60;;;;;;;;;;5052837;28;20021;-84
2021/11/09 00:55:31;;;;;;;18.15;8.45;;;;;;;;;;5051131;28;20024;-82
2021/11/09 00:57:56;;;;;;;16.83;9.02;;;;;;;;;;5051876;28;20025;-84
2021/11/09 01:00:25;;;;;;;23.25;10.23;;;;;;;;;;5053197;28;20020;-83
2021/11/09 01:02:51;;;;;;;18.67;9.40;;;;;;;;;;5054173;28;20396;-85
2021/11/09 01:05:23;;;;;;;15.73;8.65;;;;;;;;;;5034889;28;20048;-83
2021/11/09 01:08:04;;;;;;;19.15;9.77;;;;;;;;;;5055877;28;20056;-82
2021/11/09 01:10:35;;;;;;;16.73;8.70;;;;;;;;;;5057715;28;20051;-85
2021/11/09 01:13:01;;;;;;;18.40;8.27;;;;;;;;;;5034788;28;20484;-82
2021/11/09 01:15:29;;;;;;;17.98;9.07;;;;;;;;;;5034887;28;20017;-82
2021/11/09 01:17:56;;;;;;;18.02;8.40;;;;;;;;;;5039564;28;20028;-82
2021/11/09 01:20:23;;;;;;;22.30;8.90;;;;;;;;;;5034791;28;20067;-83
2021/11/09 01:22:52;;;;;;;21.02;8.32;;;;;;;;;;5053266;28;20021;-85
2021/11/09 01:25:19;;;;;;;18.83;8.43;;;;;;;;;;5042358;28;20025;-85
2021/11/09 01:27:44;;;;;;;19.77;8.45;;;;;;;;;;5034676;28;20025;-81
2021/11/09 01:30:10;;;;;;;18.55;8.55;;;;;;;;;;5039223;28;20036;-85
2021/11/09 01:32:36;;;;;;;17.38;8.48;;;;;;;;;;5048448;28;20059;-85
2021/11/09 01:35:03;;;;;;;19.10;8.45;;;;;;;;;;5042292;28;20028;-83
2021/11/09 01:37:29;;;;;;;19.88;8.45;;;;;;;;;;5021265;28;20026;-85
2021/11/09 01:39:54;;;;;;;18.73;8.23;;;;;;;;;;5034641;28;20075;-83
2021/11/09 01:42:19;;;;;;;18.55;8.77;;;;;;;;;;5034524;28;20045;-85
2021/11/09 01:44:45;;;;;;;19.67;8.13;;;;;;;;;;5041770;28;20392;-82
2021/11/09 01:47:10;;;;;;;22.85;8.77;;;;;;;;;;5031702;28;20052;-85
2021/11/09 01:49:36;;;;;;;17.92;8.07;;;;;;;;;;5038441;28;20054;-85
2021/11/09 01:52:02;;;;;;;19.98;8.50;;;;;;;;;;5055926;28;20108;-82
2021/11/09 01:54:27;;;;;;;22.63;9.30;;;;;;;;;;5056660;28;20056;-84
2021/11/09 01:56:53;;;;;;;18.42;7.90;;;;;;;;;;5038206;28;20552;-83
2021/11/09 01:59:19;;;;;;;21.42;8.82;;;;;;;;;;5032723;28;20025;-85
2021/11/09 02:01:45;;;;;;;16.67;7.72;;;;;;;;;;5037884;28;20028;-82
2021/11/09 02:04:11;;;;;;;17.52;8.27;;;;;;;;;;5056229;28;20045;-85
2021/11/09 02:06:37;;;;;;;17.17;8.27;;;;;;;;;;5045782;28;20473;-85
2021/11/09 02:09:14;;;;;;;17.15;8.57;;;;;;;;;;5037832;28;20034;-85
2021/11/09 02:11:41;;;;;;;20.25;8.50;;;;;;;;;;5037775;28;20159;-83
2021/11/09 02:14:07;;;;;;;19.83;8.70;;;;;;;;;;5023670;28;20028;-85
2021/11/09 02:16:35;;;;;;;20.83;8.75;;;;;;;;;;5059078;28;20029;-85
2021/11/09 02:19:01;;;;;;;16.67;8.38;;;;;;;;;;5054540;28;20024;-82
2021/11/09 02:21:27;;;;;;;18.48;8.43;;;;;;;;;;5054834;28;20029;-85
2021/11/09 02:23:52;;;;;;;19.80;8.35;;;;;;;;;;5049995;28;20032;-83
2021/11/09 02:26:20;;;;;;;20.27;9.07;;;;;;;;;;5035200;28;20025;-85
2021/11/09 02:28:48;;;;;;;19.13;7.88;;;;;;;;;;5055217;28;20108;-85
2021/11/09 02:31:14;;;;;;;19.45;8.18;;;;;;;;;;5054093;28;20120;-82
2021/11/09 02:33:39;;;;;;;15.82;8.02;;;;;;;;;;5055675;28;20021;-86
2021/11/09 02:36:05;;;;;;;16.98;8.48;;;;;;;;;;5051584;28;20025;-85
2021/11/09 02:38:30;;;;;;;19.58;8.52;;;;;;;;;;5028602;28;20031;-81
2021/11/09 02:40:57;;;;;;;19.75;7.43;;;;;;;;;;5054978;28;20029;-82
2021/11/09 02:43:24;;;;;;;18.92;7.82;;;;;;;;;;5037593;28;20021;-83
2021/11/09 02:48:42;;;;;;;21.55;8.55;;;;;;;;;;5053618;28;20101;-86
2021/11/09 02:51:12;;;;;;;19.05;8.60;;;;;;;;;;5054068;28;20025;-83
2021/11/09 03:01:39;;;;;;;20.40;8.85;;;;;;;;;;5054052;28;20365;-85
2021/11/09 03:04:11;;;;;;;18.73;7.47;;;;;;;;;;5054245;28;20120;-85
2021/11/09 03:06:53;;;;;;;17.33;8.20;;;;;;;;;;5041937;28;20029;-85
2021/11/09 03:09:21;;;;;;;18.57;8.43;;;;;;;;;;5043817;28;20028;-83
2021/11/09 03:11:58;;;;;;;19.75;8.23;;;;;;;;;;5035621;28;20044;-86
2021/11/09 03:14:27;;;;;;;19.73;8.98;;;;;;;;;;5036630;28;20518;-82
2021/11/09 03:16:54;;;;;;;21.67;8.82;;;;;;;;;;5061256;28;20021;-86
2021/11/09 03:19:37;;;;;;;22.60;9.93;;;;;;;;;;5053383;28;20044;-86
2021/11/09 03:46:38;;;;;;;21.85;9.70;;;;;;;;;;5054566;28;20624;-82
2021/11/09 03:49:05;;;;;;;17.42;9.43;;;;;;;;;;5054080;28;20083;-85
2021/11/09 03:51:32;;;;;;;17.90;10.15;;;;;;;;;;5039002;28;20103;-84
2021/11/09 03:54:02;;;;;;;19.60;9.90;;;;;;;;;;5056844;28;20028;-81
2021/11/09 03:57:16;;;;;;;18.38;10.02;;;;;;;;;;5049771;28;20075;-85
2021/11/09 03:59:23;;;;;;;17.80;10.02;;;;;;;;;;5048116;28;20090;-87
2021/11/09 04:07:34;;;;;;;20.00;10.35;;;;;;;;;;5052831;28;20086;-85
2021/11/09 04:15:27;;;;;;;20.63;9.90;;;;;;;;;;5021856;28;20048;-82
2021/11/09 04:28:28;;;;;;;21.85;10.63;;;;;;;;;;5052988;28;20460;-85
2021/11/09 04:34:06;;;;;;;23.38;10.65;;;;;;;;;;5053670;28;20040;-83
2021/11/09 05:02:53;;;;;;;20.73;11.07;;;;;;;;;;5051517;28;20047;-85
2021/11/09 05:10:48;;;;;;;23.27;10.85;;;;;;;;;;5051375;28;20059;-84
2021/11/09 05:13:14;;;;;;;19.25;10.27;;;;;;;;;;5037034;28;20472;-85
2021/11/09 05:15:40;;;;;;;20.55;10.25;;;;;;;;;;5052596;28;20025;-85
2021/11/09 05:18:05;;;;;;;24.58;10.82;;;;;;;;;;5035576;28;20025;-83
2021/11/09 05:20:31;;;;;;;23.38;10.75;;;;;;;;;;5052318;28;20060;-84
2021/11/09 05:22:58;;;;;;;29.52;11.18;;;;;;;;;;5053373;28;20025;-83
2021/11/09 05:25:24;;;;;;;16.58;9.50;;;;;;;;;;5047668;28;20108;-82
2021/11/09 05:27:50;;;;;;;20.38;10.27;;;;;;;;;;5040292;28;20033;-83
2021/11/09 05:30:16;;;;;;;26.30;10.65;;;;;;;;;;5055559;28;20082;-84
2021/11/09 05:32:42;;;;;;;21.25;10.35;;;;;;;;;;5045087;28;20031;-82
2021/11/09 05:35:08;;;;;;;21.33;9.90;;;;;;;;;;5039247;28;20041;-84
2021/11/09 05:37:45;;;;;;;24.65;10.57;;;;;;;;;;5038886;28;20024;-82
2021/11/09 05:40:12;;;;;;;22.63;11.02;;;;;;;;;;5039059;28;20040;-83
2021/11/09 05:42:37;;;;;;;21.45;9.77;;;;;;;;;;5038461;28;20032;-84
2021/11/09 05:45:05;;;;;;;20.20;10.65;;;;;;;;;;5040876;28;20464;-81
2021/11/09 05:47:33;;;;;;;19.27;9.98;;;;;;;;;;5051601;28;20115;-83
2021/11/09 05:49:58;;;;;;;20.80;10.48;;;;;;;;;;5051690;28;20112;-85
2021/11/09 05:52:24;;;;;;;22.10;10.20;;;;;;;;;;5038330;28;20051;-82
2021/11/09 05:54:50;;;;;;;18.77;9.98;;;;;;;;;;5038526;28;20029;-83
2021/11/09 05:57:16;;;;;;;22.98;10.25;;;;;;;;;;5055247;28;20431;-84
2021/11/09 05:59:42;;;;;;;22.95;10.45;;;;;;;;;;5041911;28;20067;-85
2021/11/09 06:02:07;;;;;;;20.42;10.15;;;;;;;;;;5055948;28;20025;-85
2021/11/09 06:04:33;;;;;;;24.42;10.60;;;;;;;;;;5055696;28;20111;-82
2021/11/09 06:06:58;;;;;;;21.35;10.40;;;;;;;;;;5037492;28;20036;-82
2021/11/09 06:09:24;;;;;;;23.77;11.25;;;;;;;;;;5055838;28;20020;-83
2021/11/09 06:11:49;;;;;;;25.42;10.60;;;;;;;;;;5055812;28;20100;-81
2021/11/09 06:14:15;;;;;;;17.70;9.93;;;;;;;;;;5041019;28;20048;-85
2021/11/09 06:16:40;;;;;;;20.23;10.02;;;;;;;;;;5029311;28;20021;-85
2021/11/09 06:19:06;;;;;;;21.45;9.88;;;;;;;;;;5058534;28;20437;-84
2021/11/09 06:21:32;;;;;;;19.95;10.63;;;;;;;;;;5055716;28;20032;-85
2021/11/09 06:23:58;;;;;;;22.45;9.80;;;;;;;;;;5055664;28;20108;-84
2021/11/09 06:26:24;;;;;;;25.63;10.75;;;;;;;;;;5055725;28;20480;-82
2021/11/09 06:28:51;;;;;;;19.73;10.10;;;;;;;;;;5058329;28;20725;-83
2021/11/09 06:31:17;;;;;;;24.15;10.80;;;;;;;;;;5058977;28;20020;-85
2021/11/09 06:33:42;;;;;;;24.92;10.45;;;;;;;;;;5053681;28;20396;-82
2021/11/09 06:36:07;;;;;;;22.75;10.20;;;;;;;;;;5055892;28;20220;-85
2021/11/09 06:38:34;;;;;;;25.40;9.95;;;;;;;;;;5037813;28;20025;-82
2021/11/09 06:40:59;;;;;;;23.48;9.90;;;;;;;;;;5053484;28;20372;-83
2021/11/09 06:43:24;;;;;;;23.33;9.57;;;;;;;;;;5042076;28;20024;-85
2021/11/09 06:45:50;;;;;;;19.92;10.82;;;;;;;;;;5055744;28;20487;-84
2021/11/09 06:48:18;;;;;;;21.83;10.02;;;;;;;;;;5064178;28;20426;-82
2021/11/09 06:50:43;;;;;;;21.33;10.35;;;;;;;;;;5055369;28;20025;-82
2021/11/09 06:53:08;;;;;;;22.25;10.27;;;;;;;;;;5048603;28;20369;-82
2021/11/09 06:55:37;;;;;;;28.00;10.77;;;;;;;;;;5055515;28;20033;-85
2021/11/09 06:58:02;;;;;;;22.00;10.50;;;;;;;;;;5055365;28;20027;-82
2021/11/09 07:00:28;;;;;;;21.33;10.43;;;;;;;;;;5054863;28;20213;-81
2021/11/09 07:02:53;;;;;;;22.10;10.50;;;;;;;;;;5055343;28;20392;-81
2021/11/09 07:05:25;;;;;;;22.58;10.27;;;;;;;;;;5040401;28;20102;-82
2021/11/09 07:07:51;;;;;;;23.80;10.55;;;;;;;;;;5049848;28;20445;-82
2021/11/09 07:10:16;;;;;;;23.70;10.80;;;;;;;;;;5037336;28;20060;-82
2021/11/09 07:12:47;;;;;;;21.58;10.18;;;;;;;;;;5037638;28;20024;-81
2021/11/09 07:15:33;;;;;;;21.65;10.55;;;;;;;;;;5053605;28;20025;-82
2021/11/09 07:18:03;;;;;;;22.73;9.65;;;;;;;;;;5054950;28;20047;-81
2021/11/09 07:20:31;;;;;;;23.92;10.25;;;;;;;;;;5055216;28;20032;-84
2021/11/09 07:23:06;;;;;;;23.92;10.68;;;;;;;;;;5052857;28;20025;-84
2021/11/09 07:25:34;;;;;;;28.02;11.00;;;;;;;;;;5043830;28;20025;-84
2021/11/09 07:28:05;;;;;;;23.83;10.77;;;;;;;;;;5045372;28;20529;-84
2021/11/09 07:30:43;;;;;;;27.67;11.07;;;;;;;;;;5040046;28;20021;-83
2021/11/09 07:33:10;;;;;;;23.35;10.63;;;;;;;;;;5051890;28;20043;-82
2021/11/09 07:35:36;;;;;;;21.83;9.93;;;;;;;;;;5052876;28;20017;-81
2021/11/09 07:38:02;;;;;;;25.17;11.80;;;;;;;;;;5055682;28;20097;-85
2021/11/09 07:40:28;;;;;;;23.40;11.23;;;;;;;;;;5045505;28;20025;-84
2021/11/09 07:42:54;;;;;;;25.17;11.10;;;;;;;;;;5049868;28;20120;-83
2021/11/09 07:45:21;;;;;;;19.55;9.52;;;;;;;;;;5052613;28;20071;-81
2021/11/09 07:47:49;;;;;;;23.02;10.13;;;;;;;;;;5062301;28;20500;-84
2021/11/09 07:50:16;;;;;;;23.85;10.68;;;;;;;;;;5046005;28;20024;-84
2021/11/09 07:52:44;;;;;;;26.25;10.82;;;;;;;;;;5060177;28;20044;-84
2021/11/09 07:55:13;;;;;;;22.85;10.40;;;;;;;;;;5047789;28;20399;-83
2021/11/09 07:57:45;;;;;;;21.17;10.65;;;;;;;;;;5042017;28;20078;-83
2021/11/09 08:00:22;;;;;;;19.92;9.98;;;;;;;;;;5056486;28;20021;-81
2021/11/09 08:05:38;;;;;;;23.83;10.70;;;;;;;;;;5053818;28;20539;-81
2021/11/09 08:08:16;;;;;;;24.38;11.38;;;;;;;;;;5036584;28;20108;-83
2021/11/09 08:10:42;;;;;;;27.17;11.57;;;;;;;;;;5036182;28;20032;-83
2021/11/09 08:13:08;;;;;;;22.15;11.35;;;;;;;;;;5035945;28;20021;-84
2021/11/09 08:15:34;;;;;;;24.85;11.52;;;;;;;;;;5053660;28;20045;-83
2021/11/09 08:17:59;;;;;;;27.27;11.13;;;;;;;;;;5052858;28;20091;-82
2021/11/09 08:20:25;;;;;;;24.30;10.85;;;;;;;;;;5039127;28;20020;-83
2021/11/09 08:22:50;;;;;;;23.10;10.68;;;;;;;;;;5036599;28;20434;-84
2021/11/09 08:25:16;;;;;;;22.67;11.35;;;;;;;;;;5036227;28;20029;-82
2021/11/09 08:27:41;;;;;;;25.23;10.27;;;;;;;;;;5035087;28;20036;-83
2021/11/09 08:30:16;;;;;;;26.02;11.73;;;;;;;;;;5042726;28;20033;-84
2021/11/09 08:32:42;;;;;;;21.40;11.10;;;;;;;;;;5040440;28;20122;-81
2021/11/09 08:35:11;;;;;;;28.05;11.30;;;;;;;;;;5054314;28;20479;-84
2021/11/09 08:37:37;;;;;;;21.23;10.55;;;;;;;;;;5049655;28;20013;-83
2021/11/09 08:40:09;;;;;;;22.70;10.23;;;;;;;;;;5051981;28;20033;-81
2021/11/09 08:42:39;;;;;;;25.93;11.67;;;;;;;;;;5055385;28;20021;-84
2021/11/09 08:45:09;;;;;;;25.48;11.40;;;;;;;;;;5058976;28;20029;-84
2021/11/09 08:47:39;;;;;;;23.33;10.77;;;;;;;;;;5042083;28;20031;-81
2021/11/09 08:50:06;;;;;;;26.25;11.00;;;;;;;;;;5039149;28;20400;-81
2021/11/09 08:52:33;;;;;;;24.45;10.85;;;;;;;;;;5042340;28;20021;-84
2021/11/09 09:05:26;;;;;;;20.70;10.48;;;;;;;;;;5052902;28;20412;-82
2021/11/09 09:07:51;;;;;;;25.48;11.23;;;;;;;;;;5034949;28;20036;-82
2021/11/09 09:10:17;;;;;;;26.45;10.52;;;;;;;;;;5037368;28;20025;-83
2021/11/09 09:12:43;;;;;;;22.83;9.93;;;;;;;;;;5053214;28;20036;-84
2021/11/09 09:15:11;;;;;;;25.33;10.32;;;;;;;;;;5052914;28;20506;-81
2021/11/09 09:17:37;;;;;;;18.98;9.73;;;;;;;;;;5042347;28;20032;-84
2021/11/09 09:23:11;;;;;;;29.10;10.57;;;;;;;;;;5028097;28;20044;-83
2021/11/09 09:25:51;;;;;;;21.08;11.63;;;;;;;;;;5038118;28;20055;-82
2021/11/09 09:28:38;;;;;;;27.48;12.30;;;;;;;;;;5031522;28;20108;-84
2021/11/09 09:55:40;;;;;;;40.78;21.15;;;;;;;;;;5061225;28;20030;-84
2021/11/09 09:58:11;;;;;;;33.65;18.00;;;;;;;;;;5062950;28;20029;-82
2021/11/09 10:00:41;;;;;;;27.70;16.10;;;;;;;;;;5060971;28;20023;-82
2021/11/09 10:03:08;;;;;;;31.83;16.20;;;;;;;;;;5051221;28;20030;-81
2021/11/09 10:05:38;;;;;;;30.65;15.57;;;;;;;;;;5054125;28;20048;-84
2021/11/09 10:08:18;;;;;;;29.33;14.27;;;;;;;;;;5043767;28;20435;-84
2021/11/09 10:10:45;;;;;;;24.50;12.40;;;;;;;;;;5055820;28;20041;-82
2021/11/09 10:13:20;;;;;;;28.60;11.85;;;;;;;;;;5039972;28;20036;-84
2021/11/09 10:15:54;;;;;;;24.63;10.88;;;;;;;;;;5045242;28;20033;-84
2021/11/09 10:18:22;;;;;;;21.27;10.68;;;;;;;;;;5054373;28;20079;-81
2021/11/09 10:20:53;;;;;;;22.63;10.07;;;;;;;;;;5065312;28;20029;-81
2021/11/09 10:23:29;;;;;;;24.75;10.27;;;;;;;;;;5038568;28;20090;-81
2021/11/09 10:26:00;;;;;;;25.13;9.65;;;;;;;;;;5033290;28;20036;-83
2021/11/09 10:28:26;;;;;;;23.20;10.18;;;;;;;;;;5061656;28;20025;-84
2021/11/09 10:31:04;;;;;;;20.23;9.88;;;;;;;;;;5056245;28;20036;-83
2021/11/09 10:33:45;;;;;;;24.77;10.45;;;;;;;;;;5038049;28;20384;-82
2021/11/09 10:36:21;;;;;;;21.00;8.98;;;;;;;;;;5039776;28;20021;-84
2021/11/09 10:38:48;;;;;;;26.58;9.55;;;;;;;;;;5039756;28;20021;-84
2021/11/09 10:41:14;;;;;;;24.42;10.18;;;;;;;;;;5048088;28;20051;-81
2021/11/09 10:43:39;;;;;;;22.33;9.05;;;;;;;;;;5037788;28;20116;-81
2021/11/09 10:46:05;;;;;;;24.35;10.48;;;;;;;;;;5058207;28;20111;-82
2021/11/09 10:48:31;;;;;;;20.35;8.98;;;;;;;;;;5057408;28;20055;-84
2021/11/09 10:51:00;;;;;;;19.00;9.02;;;;;;;;;;5074346;28;20518;-82
2021/11/09 10:53:39;;;;;;;23.88;8.68;;;;;;;;;;5061810;28;20494;-82
2021/11/09 10:56:55;;;;;;;26.63;9.77;;;;;;;;;;5055302;28;20013;-84
2021/11/09 10:59:46;;;;;;;23.67;9.35;;;;;;;;;;5045393;28;20033;-84
2021/11/09 11:05:21;;;;;;;19.27;8.98;;;;;;;;;;5057252;28;20086;-81
2021/11/09 11:07:56;;;;;;;;;;;;;;;;;;5062703;28;20180;-84
2021/11/09 11:10:32;;;;;;;20.15;7.97;;;;;;;;;;5054888;28;19908;-84
2021/11/09 11:13:21;;;;;;;21.60;7.53;;;;;;;;;;5040378;28;20032;-83
2021/11/09 11:16:08;;;;;;;23.55;8.77;;;;;;;;;;5048895;28;20028;-83
2021/11/09 11:18:39;;;;;;;20.27;8.00;;;;;;;;;;5054956;28;20016;-81
2021/11/09 11:21:07;;;;;;;20.30;7.60;;;;;;;;;;5053154;28;20498;-83
2021/11/09 11:23:34;;;;;;;23.10;8.48;;;;;;;;;;5049270;28;20024;-84
2021/11/09 11:26:00;;;;;;;23.13;8.65;;;;;;;;;;5044139;28;20029;-84
2021/11/09 11:28:28;;;;;;;20.20;7.32;;;;;;;;;;5054146;28;20055;-81
2021/11/09 11:30:54;;;;;;;25.67;7.78;;;;;;;;;;5054018;28;20029;-81
2021/11/09 11:33:19;;;;;;;20.23;7.53;;;;;;;;;;5036670;28;20062;-81
2021/11/09 11:35:47;;;;;;;16.15;8.38;;;;;;;;;;5051199;28;20028;-83
2021/11/09 11:38:13;;;;;;;22.27;8.05;;;;;;;;;;5046189;28;20020;-83
2021/11/09 11:40:39;;;;;;;17.90;7.35;;;;;;;;;;5036777;28;20396;-80
2021/11/09 11:43:05;;;;;;;19.02;7.15;;;;;;;;;;5056005;28;20020;-83
2021/11/09 11:45:45;;;;;;;27.85;9.10;;;;;;;;;;5038853;28;20400;-84
2021/11/09 11:48:11;;;;;;;19.52;7.32;;;;;;;;;;5035950;28;20035;-81
2021/11/09 11:50:41;;;;;;;21.83;7.38;;;;;;;;;;5049153;28;20024;-84
2021/11/09 11:53:07;;;;;;;17.40;6.82;;;;;;;;;;5054471;28;20056;-81
2021/11/09 11:55:32;;;;;;;17.45;6.47;;;;;;;;;;5036644;28;20094;-81
2021/11/09 11:58:14;;;;;;;20.08;7.03;;;;;;;;;;5036103;28;20024;-81
2021/11/09 12:00:56;;;;;;;21.35;7.25;;;;;;;;;;5023335;28;20033;-81
2021/11/09 12:03:21;;;;;;;18.00;7.82;;;;;;;;;;5036000;28;20092;-81
2021/11/09 12:05:49;;;;;;;15.50;7.40;;;;;;;;;;5015344;28;20165;-81
2021/11/09 12:08:16;;;;;;;19.60;7.75;;;;;;;;;;5012944;28;20116;-83
2021/11/09 12:10:46;;;;;;;17.02;7.20;;;;;;;;;;5014116;28;20076;-81
2021/11/09 12:13:12;;;;;;;19.13;7.50;;;;;;;;;;4996837;28;20034;-81
2021/11/09 12:15:46;;;;;;;16.77;6.93;;;;;;;;;;4996384;28;20054;-83
2021/11/09 12:18:41;;;;;;;18.33;7.18;;;;;;;;;;5014189;28;20034;-81
2021/11/09 12:21:30;;;;;;;17.42;6.95;;;;;;;;;;5015262;28;20050;-82
2021/11/09 12:24:15;;;;;;;19.65;7.30;;;;;;;;;;5012210;28;20055;-84
2021/11/09 12:26:49;;;;;;;20.05;8.43;;;;;;;;;;4996407;28;20056;-81
2021/11/09 12:29:36;;;;;;;17.95;7.40;;;;;;;;;;5012827;28;20049;-84
2021/11/09 12:32:34;;;;;;;21.13;7.80;;;;;;;;;;4999234;28;20033;-84
2021/11/09 12:35:15;;;;;;;16.92;6.68;;;;;;;;;;5002674;28;20420;-83
2021/11/09 12:38:04;;;;;;;16.52;6.97;;;;;;;;;;5011101;28;20108;-85
2021/11/09 12:40:33;;;;;;;21.85;7.50;;;;;;;;;;4991812;28;20116;-83
2021/11/09 12:43:06;;;;;;;20.15;7.60;;;;;;;;;;4997635;28;20030;-83
2021/11/09 12:45:32;;;;;;;20.45;6.95;;;;;;;;;;4992511;28;20030;-81
2021/11/09 12:48:08;;;;;;;18.55;7.07;;;;;;;;;;5011068;28;20022;-80
2021/11/09 12:50:36;;;;;;;17.17;6.82;;;;;;;;;;4991694;28;20029;-85
2021/11/09 12:53:12;;;;;;;19.33;7.25;;;;;;;;;;5006771;28;20072;-81
2021/11/09 12:55:39;;;;;;;18.73;7.25;;;;;;;;;;5012079;28;20031;-81
2021/11/09 12:58:16;;;;;;;15.45;6.85;;;;;;;;;;5004380;28;20044;-81
2021/11/09 13:00:48;;;;;;;21.15;6.95;;;;;;;;;;4999075;28;20033;-83
2021/11/09 13:03:35;;;;;;;15.93;6.77;;;;;;;;;;4986420;28;20025;-81
2021/11/09 13:06:07;;;;;;;21.33;7.07;;;;;;;;;;5031973;28;20045;-84
2021/11/09 13:08:47;;;;;;;19.55;7.25;;;;;;;;;;5032081;28;20056;-81
2021/11/09 13:11:30;;;;;;;17.90;6.25;;;;;;;;;;5048485;28;20038;-85
2021/11/09 13:14:08;;;;;;;;;;;;;;;;;;5014697;28;20516;-83
2021/11/09 13:16:39;;;;;;;20.20;6.80;;;;;;;;;;5049380;28;19913;-85
2021/11/09 13:19:06;;;;;;;18.98;8.15;;;;;;;;;;5036115;28;20030;-81
2021/11/09 13:21:32;;;;;;;25.73;7.50;;;;;;;;;;5025134;28;20040;-82
2021/11/09 13:23:58;;;;;;;18.90;7.05;;;;;;;;;;5031420;28;20040;-85
2021/11/09 13:26:23;;;;;;;17.77;6.78;;;;;;;;;;5031166;28;20037;-81
2021/11/09 13:28:48;;;;;;;19.05;6.53;;;;;;;;;;5031676;28;20628;-81
2021/11/09 13:31:15;;;;;;;20.67;6.30;;;;;;;;;;5031687;28;20104;-83
2021/11/09 13:33:43;;;;;;;17.15;6.68;;;;;;;;;;5031454;28;20535;-85
2021/11/09 13:36:09;;;;;;;14.52;6.95;;;;;;;;;;5031342;28;20028;-82
2021/11/09 13:38:38;;;;;;;19.33;6.25;;;;;;;;;;5031308;28;20022;-81
2021/11/09 13:41:17;;;;;;;17.58;6.53;;;;;;;;;;5031627;28;20033;-83
2021/11/09 13:43:52;;;;;;;15.82;7.13;;;;;;;;;;5035272;28;20116;-81
2021/11/09 13:46:26;;;;;;;22.20;6.25;;;;;;;;;;5034161;28;20071;-80
2021/11/09 13:48:54;;;;;;;20.15;6.60;;;;;;;;;;5015824;28;20025;-84
2021/11/09 13:51:25;;;;;;;14.57;6.25;;;;;;;;;;5027923;28;20025;-84
2021/11/09 13:54:08;;;;;;;17.23;7.13;;;;;;;;;;5036412;28;20112;-81
2021/11/09 13:56:34;;;;;;;20.93;6.80;;;;;;;;;;5037408;28;20061;-81
2021/11/09 13:59:07;;;;;;;21.40;6.18;;;;;;;;;;5038878;28;20056;-80
2021/11/09 14:01:55;;;;;;;15.27;6.60;;;;;;;;;;5044120;28;20030;-83
2021/11/09 14:07:05;;;;;;;15.32;5.85;;;;;;;;;;5031222;28;20424;-83
2021/11/09 14:12:22;;;;;;;13.13;5.70;;;;;;;;;;5042354;28;20033;-81
2021/11/09 14:14:58;;;;;;;15.35;6.03;;;;;;;;;;5003942;28;20520;-83
2021/11/09 14:17:34;;;;;;;15.48;6.22;;;;;;;;;;5014502;28;20087;-83
2021/11/09 14:20:20;;;;;;;20.63;7.25;;;;;;;;;;5038178;28;20091;-81
2021/11/09 14:22:57;;;;;;;21.58;6.20;;;;;;;;;;5013027;28;20064;-83
2021/11/09 14:25:26;;;;;;;14.43;6.05;;;;;;;;;;5015752;28;20032;-82
2021/11/09 14:27:51;;;;;;;18.17;5.55;;;;;;;;;;5040349;28;20029;-82
2021/11/09 14:30:23;;;;;;;17.30;5.57;;;;;;;;;;5024712;28;21395;-83
2021/11/09 14:32:49;;;;;;;17.52;5.88;;;;;;;;;;5008736;28;20029;-81
2021/11/09 14:38:03;;;;;;;17.58;6.07;;;;;;;;;;5034516;28;20017;-83
2021/11/09 14:40:33;;;;;;;19.90;5.93;;;;;;;;;;5026368;28;20021;-82
2021/11/09 14:43:16;;;;;;;17.48;6.03;;;;;;;;;;5031454;28;20029;-83
2021/11/09 14:48:18;;;;;;;15.63;5.72;;;;;;;;;;5037690;28;20661;-81
2021/11/09 14:50:54;;;;;;;14.73;5.90;;;;;;;;;;5029000;28;20064;-80
2021/11/09 14:53:26;;;;;;;16.60;5.70;;;;;;;;;;5032022;28;20420;-80
2021/11/09 14:55:55;;;;;;;17.17;5.68;;;;;;;;;;5031647;28;20083;-81
2021/11/09 14:58:27;;;;;;;17.90;5.38;;;;;;;;;;5026546;28;20018;-84
2021/11/09 15:00:57;;;;;;;14.55;5.45;;;;;;;;;;5029537;28;20040;-82
2021/11/09 15:03:22;;;;;;;14.32;5.70;;;;;;;;;;5015177;28;20033;-81
2021/11/09 15:05:48;;;;;;;15.68;6.15;;;;;;;;;;5006975;28;20098;-83
2021/11/09 15:08:27;;;;;;;13.57;5.40;;;;;;;;;;4996538;28;20018;-84
2021/11/09 15:27:44;;;;;;;13.60;5.55;;;;;;;;;;5026146;28;20150;-80
2021/11/09 15:30:14;;;;;;;15.65;5.57;;;;;;;;;;5018915;28;20021;-83
2021/11/09 15:32:39;;;;;;;20.55;5.72;;;;;;;;;;4995434;28;20211;-84
2021/11/09 15:35:08;;;;;;;12.18;4.78;;;;;;;;;;5012222;28;20033;-84
2021/11/09 15:37:37;;;;;;;13.18;5.13;;;;;;;;;;4995126;28;20030;-83
2021/11/09 15:40:07;;;;;;;20.67;6.53;;;;;;;;;;4995189;28;20026;-84
2021/11/09 15:42:33;;;;;;;14.45;5.85;;;;;;;;;;5010159;28;20052;-80
2021/11/09 15:44:58;;;;;;;13.93;4.97;;;;;;;;;;5005951;28;20884;-83
2021/11/09 15:47:27;;;;;;;18.75;5.45;;;;;;;;;;5020345;28;20029;-81
2021/11/09 15:49:53;;;;;;;14.60;5.50;;;;;;;;;;4995266;28;20056;-84
2021/11/09 15:52:19;;;;;;;17.00;5.47;;;;;;;;;;5014313;28;20569;-82
2021/11/09 15:54:45;;;;;;;19.33;5.60;;;;;;;;;;5018179;28;20033;-82
2021/11/09 15:57:10;;;;;;;13.32;5.20;;;;;;;;;;5012040;28;20088;-83
2021/11/09 15:59:36;;;;;;;13.75;5.55;;;;;;;;;;4994888;28;20480;-82
2021/11/09 16:02:02;;;;;;;17.30;6.22;;;;;;;;;;5010755;28;20067;-84
2021/11/09 16:04:31;;;;;;;15.95;5.90;;;;;;;;;;5001337;28;20080;-81
2021/11/09 16:06:58;;;;;;;23.33;6.40;;;;;;;;;;5010768;28;20037;-83
2021/11/09 16:09:24;;;;;;;16.85;5.72;;;;;;;;;;4995094;28;20030;-84
2021/11/09 16:11:51;;;;;;;16.35;5.38;;;;;;;;;;4994817;28;20401;-84
2021/11/09 16:14:18;;;;;;;18.67;7.60;;;;;;;;;;5013361;28;20033;-82
2021/11/09 16:16:44;;;;;;;22.55;8.45;;;;;;;;;;4994769;28;20034;-81
2021/11/09 16:19:10;;;;;;;32.03;13.35;;;;;;;;;;4997500;28;20038;-84
2021/11/09 16:21:35;;;;;;;20.92;8.07;;;;;;;;;;4994597;28;20120;-83
2021/11/09 16:24:02;;;;;;;20.67;8.68;;;;;;;;;;5012562;28;20033;-83
2021/11/09 16:26:28;;;;;;;21.70;7.65;;;;;;;;;;5010503;28;20038;-81
2021/11/09 16:28:54;;;;;;;20.98;8.75;;;;;;;;;;4996966;28;20411;-81
2021/11/09 16:31:25;;;;;;;18.00;6.22;;;;;;;;;;5002018;28;20026;-81
2021/11/09 16:34:01;;;;;;;13.88;5.63;;;;;;;;;;5012211;28;20052;-82
2021/11/09 16:36:34;;;;;;;18.85;6.05;;;;;;;;;;5015334;28;20448;-81
2021/11/09 16:39:14;;;;;;;;;;;;;;;;;;5018255;28;20029;-80
2021/11/09 16:41:40;;;;;;;19.88;5.53;;;;;;;;;;5028228;28;19976;-84
2021/11/09 16:44:08;;;;;;;23.98;6.72;;;;;;;;;;5021833;28;20375;-81
2021/11/09 16:51:46;;;;;;;18.73;6.82;;;;;;;;;;5009503;28;20487;-82
2021/11/09 16:54:40;;;;;;;22.15;7.78;;;;;;;;;;5002199;28;20058;-82
2021/11/09 18:13:20;;;;;;;13.60;5.25;;;;;;;;;;5029044;28;20110;-84
2021/11/09 18:16:00;;;;;;;18.80;5.72;;;;;;;;;;5030156;28;20040;-81
2021/11/09 18:21:09;;;;;;;13.43;5.63;;;;;;;;;;5031375;28;20098;-82
2021/11/09 18:23:35;;;;;;;13.13;5.15;;;;;;;;;;5014212;28;20025;-82
2021/11/09 18:26:00;;;;;;;13.82;5.35;;;;;;;;;;5025870;28;20056;-81
2021/11/09 18:28:26;;;;;;;17.05;6.70;;;;;;;;;;5013936;28;20036;-82
2021/11/09 18:30:51;;;;;;;35.60;14.15;;;;;;;;;;5024472;28;20068;-84
2021/11/09 18:33:23;;;;;;;27.70;11.73;;;;;;;;;;4992851;28;20045;-82
2021/11/09 18:35:56;;;;;;;20.35;9.02;;;;;;;;;;5010133;28;20116;-81
2021/11/09 18:38:22;;;;;;;19.33;8.10;;;;;;;;;;5029401;28;20021;-84
2021/11/09 18:40:54;;;;;;;13.43;6.45;;;;;;;;;;5032807;28;20116;-81
2021/11/09 18:43:28;;;;;;;16.02;8.00;;;;;;;;;;5016137;28;20539;-82
2021/11/09 18:45:54;;;;;;;14.02;7.38;;;;;;;;;;5031465;28;20037;-83
2021/11/09 18:48:26;;;;;;;16.73;6.50;;;;;;;;;;5018495;28;20069;-85